KDBQ

Dubuque Regional Airport

Dubuque, Iowa, USA
METAR KDBQ 271153Z 20005KT 10SM CLR 21/19 A2984 RMK AO2 SLP098 T02110189 10222 20189 53007
Observed Flight Rules
May-27 @ 11:53 UTC (13 minutes ago) Visual Flight Rules
Wind Visibility Clouds
200° at 5 knots 10 miles
  • Clear skies
Temperatures Readings
Current 21°C / 70°F
Dewpoint 19°C / 66°F
Humidity 88%
Altimeter 29.84" Hg
Pressure 1009.8 hPa
Elevation 326
METAR KDBQ 271153Z 20005KT 10SM CLR 21/19 A2984 RMK AO2 SLP098 T02110189 10222 20189 53007
Observed Flight Rules
May-27 @ 11:53 UTC
(13 minutes ago)
VFR
Wind Visibility
200° at 5 knots 10 miles
Clouds
  • Clear skies
Temperature Dewpoint
21°C / 70°F 19°C / 66°F
Humidity Altimeter Pressure
88% 29.84" Hg 1009.8 hPa